createdAt,value
2019-06-10T00:03:05.723Z,15.27
2019-06-10T00:08:08.316Z,15.31
2019-06-10T00:13:11.807Z,15.29
2019-06-10T00:18:34.125Z,15.30
2019-06-10T00:23:17.440Z,15.32
2019-06-10T00:28:21.586Z,15.35
2019-06-10T00:33:22.644Z,15.38
2019-06-10T00:38:24.432Z,15.37
2019-06-10T00:43:26.002Z,15.37
2019-06-10T00:48:29.413Z,15.36
2019-06-10T00:53:31.712Z,15.35
2019-06-10T00:58:33.351Z,15.31
2019-06-10T01:03:35.216Z,15.25
2019-06-10T01:08:36.767Z,15.15
2019-06-10T01:13:38.562Z,15.07
2019-06-10T01:18:41.592Z,15.01
2019-06-10T01:23:43.450Z,14.94
2019-06-10T01:28:44.971Z,14.90
2019-06-10T01:33:46.509Z,14.87
2019-06-10T01:38:48.001Z,14.81
2019-06-10T01:43:51.315Z,14.75
2019-06-10T01:48:53.390Z,14.62
2019-06-10T01:53:55.207Z,14.56
2019-06-10T01:58:57.154Z,14.49
2019-06-10T02:04:00.819Z,14.49
2019-06-10T02:09:02.465Z,14.52
2019-06-10T02:14:04.578Z,14.55
2019-06-10T02:19:06.041Z,14.52
2019-06-10T02:24:07.701Z,14.52
2019-06-10T02:29:11.613Z,14.49
2019-06-10T02:34:17.507Z,14.47
2019-06-10T02:39:22.370Z,14.53
2019-06-10T02:49:55.638Z,14.58
2019-06-10T02:54:43.707Z,14.51
2019-06-10T02:59:44.079Z,14.49
2019-06-10T03:04:45.637Z,14.46
2019-06-10T03:09:47.310Z,14.43
2019-06-10T03:14:49.120Z,14.47
2019-06-10T03:19:53.530Z,14.51
2019-06-10T03:24:54.113Z,14.50
2019-06-10T03:29:55.957Z,14.41
2019-06-10T03:34:57.369Z,14.35
2019-06-10T03:39:58.883Z,14.34
2019-06-10T03:45:00.396Z,14.59
2019-06-10T03:50:03.221Z,14.44
2019-06-10T03:55:04.990Z,14.48
2019-06-10T04:00:11.317Z,14.52
2019-06-10T04:05:13.102Z,14.54
2019-06-10T04:10:14.291Z,14.56
2019-06-10T04:15:15.777Z,14.56
2019-06-10T04:20:17.820Z,14.50
2019-06-10T04:25:19.902Z,14.48
2019-06-10T04:30:24.328Z,14.40
2019-06-10T04:35:26.498Z,14.31
2019-06-10T04:40:29.360Z,14.28
2019-06-10T04:45:32.369Z,14.23
2019-06-10T04:50:42.309Z,14.22
2019-06-10T04:55:37.996Z,14.24
2019-06-10T05:00:39.554Z,14.32
2019-06-10T05:05:43.035Z,14.42
2019-06-10T05:10:45.024Z,14.52
2019-06-10T05:15:46.846Z,14.61
2019-06-10T05:20:56.036Z,14.71
2019-06-10T05:25:56.089Z,14.80
2019-06-10T05:30:55.865Z,14.88
2019-06-10T05:35:57.621Z,15.10
2019-06-10T05:40:59.023Z,15.40
2019-06-10T05:46:02.915Z,15.81
2019-06-10T05:51:06.783Z,16.35
2019-06-10T05:56:07.451Z,16.71
2019-06-10T06:01:09.038Z,17.00
2019-06-10T06:06:12.508Z,17.14
2019-06-10T06:11:14.676Z,17.39
2019-06-10T06:16:16.295Z,17.65
2019-06-10T06:21:25.730Z,18.00
2019-06-10T06:26:23.589Z,18.41
2019-06-10T06:31:34.646Z,18.75
2019-06-10T06:36:38.357Z,19.08
2019-06-10T06:41:42.464Z,19.41
2019-06-10T06:46:43.495Z,19.71
2019-06-10T06:51:54.931Z,19.92
2019-06-10T06:56:49.239Z,19.98
2019-06-10T07:01:52.463Z,20.11
2019-06-10T07:06:55.682Z,20.50
2019-06-10T07:11:57.379Z,20.57
2019-06-10T07:16:58.812Z,20.80
2019-06-10T07:22:09.655Z,20.60
2019-06-10T07:27:03.932Z,20.48
2019-06-10T07:32:05.684Z,20.54
2019-06-10T07:37:07.137Z,21.21
2019-06-10T07:42:14.847Z,21.93
2019-06-10T07:47:16.786Z,22.08
2019-06-10T07:52:20.017Z,22.15
2019-06-10T07:57:22.584Z,22.09
2019-06-10T08:02:24.385Z,21.69
2019-06-10T08:07:26.571Z,21.57
2019-06-10T08:12:27.995Z,21.40
2019-06-10T08:17:29.558Z,21.75
2019-06-10T08:22:35.116Z,21.97
2019-06-10T08:27:34.567Z,22.25
2019-06-10T08:32:37.957Z,22.50
2019-06-10T08:37:40.797Z,22.67
2019-06-10T08:42:44.142Z,22.78
2019-06-10T08:47:47.710Z,23.09
2019-06-10T08:53:07.332Z,23.63
2019-06-10T08:57:55.584Z,23.79
2019-06-10T09:02:57.823Z,23.82
2019-06-10T09:07:59.398Z,23.89
2019-06-10T09:13:02.762Z,24.42
2019-06-10T09:18:04.844Z,24.95
2019-06-10T09:23:19.197Z,25.04
2019-06-10T09:28:13.072Z,25.35
2019-06-10T09:33:14.951Z,26.02
2019-06-10T09:38:16.756Z,26.70
2019-06-10T09:43:19.396Z,27.45
2019-06-10T09:48:22.934Z,27.71
2019-06-10T09:53:33.394Z,27.50
2019-06-10T09:58:29.474Z,27.45
2019-06-10T10:03:32.948Z,27.28
2019-06-10T10:08:34.741Z,27.60
2019-06-10T10:13:36.626Z,27.97
2019-06-10T10:18:38.366Z,27.84
2019-06-10T10:23:52.482Z,27.86
2019-06-10T10:28:45.107Z,28.16
2019-06-10T10:33:48.439Z,28.82
2019-06-10T10:38:50.851Z,28.86
2019-06-10T10:43:58.031Z,28.62
2019-06-10T10:48:56.637Z,28.79
2019-06-10T10:54:25.520Z,28.74
2019-06-10T10:59:02.209Z,28.85
2019-06-10T11:04:03.997Z,28.96
2019-06-10T11:09:06.680Z,29.09
2019-06-10T11:14:08.233Z,28.84
2019-06-10T11:19:09.938Z,28.98
2019-06-10T11:24:14.168Z,28.93
2019-06-10T11:29:14.994Z,29.13
2019-06-10T11:34:19.664Z,29.43
2019-06-10T11:39:22.538Z,29.67
2019-06-10T11:44:24.093Z,29.74
2019-06-10T11:49:26.382Z,29.63
2019-06-10T11:54:28.019Z,29.20
2019-06-10T11:59:32.585Z,29.26
2019-06-10T12:04:34.039Z,28.77
2019-06-10T12:09:35.623Z,27.93
2019-06-10T12:14:37.169Z,27.97
2019-06-10T12:19:39.081Z,28.03
2019-06-10T12:24:43.190Z,28.00
2019-06-10T12:29:44.810Z,27.49
2019-06-10T12:34:47.080Z,27.38
2019-06-10T12:39:48.663Z,27.38
2019-06-10T12:44:50.142Z,27.46
2019-06-10T12:49:53.629Z,27.98
2019-06-10T12:54:55.604Z,28.30
2019-06-10T12:59:58.429Z,28.26
2019-06-10T13:05:03.120Z,28.11
2019-06-10T13:10:04.183Z,27.56
2019-06-10T13:15:07.466Z,28.16
2019-06-10T13:20:10.442Z,28.67
2019-06-10T13:25:13.466Z,28.92
2019-06-10T13:30:15.190Z,29.19
2019-06-10T13:35:16.796Z,29.11
2019-06-10T13:40:18.901Z,28.61
2019-06-10T13:45:22.397Z,28.64
2019-06-10T13:50:25.020Z,28.46
2019-06-10T13:55:27.777Z,28.28
2019-06-10T14:00:41.648Z,28.16
2019-06-10T14:05:34.610Z,28.41
2019-06-10T14:10:36.720Z,28.96
2019-06-10T14:15:38.757Z,28.98
2019-06-10T14:20:40.299Z,28.86
2019-06-10T14:25:42.458Z,28.91
2019-06-10T14:30:44.499Z,28.96
2019-06-10T14:35:45.987Z,28.44
2019-06-10T14:40:47.806Z,28.29
2019-06-10T14:45:49.627Z,28.40
2019-06-10T14:50:51.171Z,28.89
2019-06-10T14:55:53.592Z,29.22
2019-06-10T15:00:55.582Z,29.30
2019-06-10T15:05:57.181Z,29.29
2019-06-10T15:10:58.701Z,29.15
2019-06-10T15:16:04.423Z,28.60
2019-06-10T15:21:04.039Z,28.32
2019-06-10T15:26:05.590Z,28.04
2019-06-10T15:31:08.222Z,28.14
2019-06-10T15:36:11.207Z,27.86
2019-06-10T15:41:16.077Z,27.18
2019-06-10T15:46:17.929Z,26.60
2019-06-10T15:51:25.119Z,26.05
2019-06-10T15:56:37.304Z,25.62
2019-06-10T16:01:27.738Z,25.39
2019-06-10T16:06:29.314Z,25.04
2019-06-10T16:11:33.094Z,24.83
2019-06-10T16:16:34.793Z,24.64
2019-06-10T16:21:36.508Z,24.20
2019-06-10T16:26:38.448Z,23.55
2019-06-10T16:31:42.276Z,23.19
2019-06-10T16:36:43.940Z,23.00
2019-06-10T16:41:45.566Z,22.75
2019-06-10T16:46:47.462Z,22.67
2019-06-10T16:51:49.042Z,23.04
2019-06-10T16:56:52.300Z,23.41
2019-06-10T17:01:53.982Z,23.67
2019-06-10T17:06:55.775Z,23.63
2019-06-10T17:11:57.610Z,23.31
2019-06-10T17:16:59.197Z,23.14
2019-06-10T17:22:00.858Z,22.97
2019-06-10T17:27:02.729Z,22.58
2019-06-10T17:32:04.599Z,22.44
2019-06-10T17:37:06.519Z,22.29
2019-06-10T17:42:08.321Z,22.17
2019-06-10T17:47:13.070Z,22.06
2019-06-10T17:52:14.332Z,21.94
2019-06-10T17:57:16.186Z,21.95
2019-06-10T18:02:18.601Z,21.91
2019-06-10T18:07:22.742Z,21.75
2019-06-10T18:12:24.041Z,21.70
2019-06-10T18:17:27.138Z,21.68
2019-06-10T18:22:31.208Z,21.62
2019-06-10T18:27:34.126Z,21.55
2019-06-10T18:32:37.572Z,21.41
2019-06-10T18:37:39.491Z,21.09
2019-06-10T18:42:41.073Z,20.79
2019-06-10T18:47:42.938Z,20.48
2019-06-10T18:52:45.052Z,20.25
2019-06-10T18:57:47.284Z,19.98
2019-06-10T19:02:49.381Z,19.85
2019-06-10T19:07:52.882Z,19.76
2019-06-10T19:12:56.802Z,19.53
2019-06-10T19:17:58.844Z,19.35
2019-06-10T19:23:02.449Z,19.19
2019-06-10T19:28:03.976Z,18.89
2019-06-10T19:33:05.880Z,18.50
2019-06-10T19:38:07.556Z,18.12
2019-06-10T19:43:09.102Z,18.02
2019-06-10T19:48:12.437Z,17.94
2019-06-10T19:53:14.487Z,17.76
2019-06-10T19:58:16.343Z,17.66
2019-06-10T20:03:17.830Z,17.66
2019-06-10T20:08:19.704Z,17.61
2019-06-10T20:13:23.039Z,17.46
2019-06-10T20:18:25.050Z,17.49
2019-06-10T20:23:26.569Z,17.40
2019-06-10T20:28:28.366Z,17.33
2019-06-10T20:33:33.676Z,17.40
2019-06-10T20:38:33.815Z,17.38
2019-06-10T20:43:35.721Z,17.40
2019-06-10T20:48:40.746Z,17.37
2019-06-10T20:53:45.930Z,17.35
2019-06-10T20:58:49.393Z,17.33
2019-06-10T21:03:51.799Z,17.13
2019-06-10T21:08:54.103Z,17.13
2019-06-10T21:13:56.318Z,17.09
2019-06-10T21:18:58.079Z,17.01
2019-06-10T21:24:02.310Z,16.87
2019-06-10T21:29:04.025Z,16.80
2019-06-10T21:34:05.536Z,16.65
2019-06-10T21:39:07.752Z,16.58
2019-06-10T21:44:09.244Z,16.50
2019-06-10T21:49:12.762Z,16.53
2019-06-10T21:54:14.151Z,16.68
2019-06-10T21:59:16.228Z,16.84
2019-06-10T22:04:18.124Z,16.95
2019-06-10T22:09:19.686Z,17.00
2019-06-10T22:14:22.488Z,17.04
2019-06-10T22:19:24.468Z,17.06
2019-06-10T22:24:26.087Z,17.02
2019-06-10T22:29:27.611Z,16.92
2019-06-10T22:34:29.072Z,16.86
2019-06-10T22:39:32.555Z,16.89
2019-06-10T22:44:34.241Z,16.93
2019-06-10T22:49:35.738Z,16.96
2019-06-10T22:54:37.228Z,16.96
2019-06-10T22:59:38.946Z,16.97
2019-06-10T23:04:43.249Z,16.98
2019-06-10T23:09:44.176Z,17.01
2019-06-10T23:14:45.985Z,17.04
2019-06-10T23:19:47.509Z,17.06
2019-06-10T23:24:49.559Z,17.07
2019-06-10T23:29:53.926Z,17.05
2019-06-10T23:34:57.868Z,17.04
2019-06-10T23:39:59.037Z,17.07
2019-06-10T23:45:04.748Z,17.00
2019-06-10T23:50:04.556Z,17.00
2019-06-10T23:55:06.175Z,16.94
